Woonsocket, Rhode Island
Current Conditions -  °F | °C
As of 2:15 PM on Sunday 23 Nov 2014 (Local Time) from KSFZ Reporting Station
Clear Clear  
Wind Chill: 57°   Ceiling: Unl
Heat Index: 57°   Visibility: 10mi
Dew Point: 30°   Wind: 3mph
Humidity: 36%   Direction: 240°WSW
Pressure: 30.11"   Gusts: NA
Location:  42°N, 71.51°W
Report Text: KSFZ 231915Z 24003KT 10SM CLR 14/M01 A3011 RMK AO1
Loading
Personal Weather Stations






























Interactive Weather Map New forecast layout! Learn more

10-Day Weather Forecast

Advertisements
Track Severe Weather on mobile